createdAt,value
2023-05-13T00:00:44.514Z,98889.88
2023-05-13T00:03:11.805Z,98891.66
2023-05-13T00:05:38.962Z,98873.16
2023-05-13T00:08:07.459Z,98894.44
2023-05-13T00:10:35.309Z,98898.06
2023-05-13T00:13:02.615Z,98887.44
2023-05-13T00:15:29.479Z,98889.41
2023-05-13T00:17:56.411Z,98886.06
2023-05-13T00:20:23.542Z,98885.25
2023-05-13T00:22:50.536Z,98891.91
2023-05-13T00:25:17.342Z,98889.63
2023-05-13T00:27:44.306Z,98890.59
2023-05-13T00:30:11.876Z,98888.66
2023-05-13T00:32:38.726Z,98894.94
2023-05-13T00:35:06.211Z,98888.09
2023-05-13T00:37:32.999Z,98877.53
2023-05-13T00:39:59.798Z,98892.44
2023-05-13T00:42:26.653Z,98889.84
2023-05-13T00:44:53.446Z,98875.84
2023-05-13T00:47:21.093Z,98890.78
2023-05-13T00:49:48.161Z,98885.59
2023-05-13T00:52:15.044Z,98894.34
2023-05-13T00:54:41.874Z,98886.78
2023-05-13T00:57:08.715Z,98880.13
2023-05-13T00:59:35.566Z,98886.91
2023-05-13T01:02:32.865Z,98880.31
2023-05-13T01:05:30.782Z,98889.69
2023-05-13T01:08:30.964Z,98888.03
2023-05-13T01:11:08.423Z,98867.97
2023-05-13T01:13:42.945Z,98877.63
2023-05-13T01:16:15.851Z,98888.03
2023-05-13T01:18:52.851Z,98887.00
2023-05-13T01:21:29.622Z,98885.25
2023-05-13T01:23:56.533Z,98874.66
2023-05-13T01:26:24.303Z,98873.09
2023-05-13T01:28:51.250Z,98886.53
2023-05-13T01:31:19.455Z,98889.50
2023-05-13T01:33:47.059Z,98877.09
2023-05-13T01:36:14.360Z,98891.47
2023-05-13T01:38:41.965Z,98878.75
2023-05-13T01:41:08.721Z,98895.09
2023-05-13T01:43:35.599Z,98901.25
2023-05-13T01:46:02.619Z,98901.81
2023-05-13T01:48:29.480Z,98887.28
2023-05-13T01:50:56.294Z,98903.09
2023-05-13T01:53:23.342Z,98906.81
2023-05-13T01:55:50.799Z,98898.44
2023-05-13T01:58:17.668Z,98905.88
2023-05-13T02:00:44.472Z,98902.56
2023-05-13T02:03:11.359Z,98911.16
2023-05-13T02:05:38.202Z,98906.25
2023-05-13T02:08:05.280Z,98907.00
2023-05-13T02:10:32.306Z,98912.41
2023-05-13T02:12:59.141Z,98905.50
2023-05-13T02:15:25.946Z,98912.41
2023-05-13T02:17:52.864Z,98910.72
2023-05-13T02:20:20.122Z,98912.41
2023-05-13T02:22:47.173Z,98913.50
2023-05-13T02:25:14.011Z,98894.94
2023-05-13T02:27:40.902Z,98914.25
2023-05-13T02:30:08.436Z,98899.16
2023-05-13T02:32:35.430Z,98911.81
2023-05-13T02:35:02.225Z,98913.69
2023-05-13T02:37:29.141Z,98914.59
2023-05-13T02:39:56.069Z,98915.34
2023-05-13T02:42:22.845Z,98913.69
2023-05-13T02:44:49.687Z,98904.28
2023-05-13T02:47:16.523Z,98905.69
2023-05-13T02:49:43.472Z,98906.63
2023-05-13T02:52:10.283Z,98902.34
2023-05-13T02:54:37.138Z,98909.31
2023-05-13T02:57:04.234Z,98904.78
2023-05-13T02:59:31.046Z,98903.47
2023-05-13T03:01:57.893Z,98908.91
2023-05-13T03:04:25.261Z,98907.34
2023-05-13T03:06:52.978Z,98905.66
2023-05-13T03:09:19.837Z,98905.31
2023-05-13T03:11:46.971Z,98902.44
2023-05-13T03:14:13.780Z,98905.22
2023-05-13T03:16:40.957Z,98911.16
2023-05-13T03:19:07.967Z,98914.59
2023-05-13T03:21:34.866Z,98918.88
2023-05-13T03:24:01.691Z,98913.56
2023-05-13T03:26:28.505Z,98913.56
2023-05-13T03:28:55.359Z,98917.19
2023-05-13T03:31:22.239Z,98918.22
2023-05-13T03:33:49.146Z,98917.38
2023-05-13T03:36:15.988Z,98919.22
2023-05-13T03:38:42.789Z,98917.38
2023-05-13T03:41:09.801Z,98919.97
2023-05-13T03:43:36.566Z,98920.72
2023-05-13T03:46:03.346Z,98898.31
2023-05-13T03:48:30.299Z,98919.22
2023-05-13T03:50:57.146Z,98928.63
2023-05-13T03:53:23.988Z,98917.75
2023-05-13T03:55:50.908Z,98932.97
2023-05-13T03:58:18.461Z,98922.19
2023-05-13T04:00:48.469Z,98933.53
2023-05-13T04:03:19.290Z,98919.22
2023-05-13T04:05:46.805Z,98930.53
2023-05-13T04:08:13.848Z,98920.50
2023-05-13T04:10:40.977Z,98928.22
2023-05-13T04:13:08.140Z,98916.31
2023-05-13T04:15:34.992Z,98939.28
2023-05-13T04:18:01.819Z,98926.50
2023-05-13T04:20:29.193Z,98943.28
2023-05-13T04:22:56.193Z,98945.88
2023-05-13T04:25:23.270Z,98929.50
2023-05-13T04:27:50.260Z,98944.09
2023-05-13T04:30:17.103Z,98944.00
2023-05-13T04:32:44.098Z,98946.13
2023-05-13T04:35:11.051Z,98945.94
2023-05-13T04:37:38.487Z,98942.53
2023-05-13T04:40:07.002Z,98944.66
2023-05-13T04:42:34.079Z,98939.38
2023-05-13T04:45:00.892Z,98951.88
2023-05-13T04:47:27.765Z,98971.25
2023-05-13T04:49:54.839Z,98966.63
2023-05-13T04:52:22.216Z,98949.81
2023-05-13T04:54:48.984Z,98969.47
2023-05-13T04:57:15.789Z,98969.22
2023-05-13T04:59:42.709Z,98971.34
2023-05-13T05:02:09.569Z,98976.19
2023-05-13T05:04:36.380Z,98970.09
2023-05-13T05:07:03.168Z,98984.66
2023-05-13T05:09:30.328Z,98971.06
2023-05-13T05:11:57.176Z,98986.16
2023-05-13T05:14:23.960Z,98986.97
2023-05-13T05:16:50.892Z,98979.25
2023-05-13T05:19:17.877Z,98983.06
2023-05-13T05:21:44.731Z,98988.44
2023-05-13T05:24:11.537Z,98985.81
2023-05-13T05:26:38.360Z,98992.53
2023-05-13T05:29:05.247Z,98996.06
2023-05-13T05:31:32.200Z,98991.34
2023-05-13T05:34:00.984Z,99000.72
2023-05-13T05:36:29.882Z,99008.81
2023-05-13T05:38:56.737Z,99007.03
2023-05-13T05:41:23.604Z,99012.41
2023-05-13T05:43:50.384Z,98998.91
2023-05-13T05:46:17.396Z,99013.06
2023-05-13T05:48:44.490Z,99012.06
2023-05-13T05:51:11.517Z,99017.25
2023-05-13T05:53:40.801Z,98999.84
2023-05-13T05:56:08.161Z,99014.66
2023-05-13T05:58:36.134Z,99013.06
2023-05-13T06:01:02.975Z,99016.50
2023-05-13T06:03:29.884Z,99018.75
2023-05-13T06:05:57.199Z,99006.88
2023-05-13T06:08:29.879Z,99022.66
2023-05-13T06:10:59.687Z,99008.88
2023-05-13T06:13:26.578Z,99015.09
2023-05-13T06:15:53.472Z,99015.56
2023-05-13T06:18:20.319Z,99008.88
2023-05-13T06:20:47.242Z,99024.88
2023-05-13T06:23:15.066Z,99026.81
2023-05-13T06:25:42.189Z,99018.94
2023-05-13T06:28:12.018Z,99027.38
2023-05-13T06:30:39.036Z,99020.53
2023-05-13T06:33:06.150Z,99013.91
2023-05-13T06:35:33.087Z,99022.47
2023-05-13T06:37:59.942Z,99007.97
2023-05-13T06:40:26.984Z,99027.47
2023-05-13T06:42:53.843Z,99003.69
2023-05-13T06:45:23.323Z,99019.50
2023-05-13T06:47:51.506Z,99015.41
2023-05-13T06:50:18.874Z,99028.63
2023-05-13T06:52:45.772Z,99010.03
2023-05-13T06:55:13.120Z,99019.16
2023-05-13T06:57:43.308Z,99029.09
2023-05-13T07:00:11.302Z,99014.63
2023-05-13T07:02:38.283Z,99021.06
2023-05-13T07:05:05.697Z,99013.16
2023-05-13T07:07:32.573Z,99008.81
2023-05-13T07:09:59.405Z,99024.06
2023-05-13T07:12:26.734Z,99019.41
2023-05-13T07:14:53.641Z,99029.91
2023-05-13T07:17:20.561Z,99024.06
2023-05-13T07:19:47.508Z,99030.75
2023-05-13T07:22:14.381Z,99023.03
2023-05-13T07:24:41.790Z,99028.72
2023-05-13T07:27:09.224Z,99029.72
2023-05-13T07:29:36.141Z,99027.59
2023-05-13T07:32:07.402Z,99030.19
2023-05-13T07:34:34.205Z,99032.91
2023-05-13T07:37:01.057Z,99028.44
2023-05-13T07:39:28.291Z,99016.47
2023-05-13T07:41:55.173Z,99018.69
2023-05-13T07:44:22.769Z,99003.72
2023-05-13T07:46:51.483Z,99016.38
2023-05-13T07:49:18.349Z,99018.41
2023-05-13T07:51:45.242Z,99033.03
2023-05-13T07:54:12.033Z,99020.09
2023-05-13T07:56:38.868Z,99001.50
2023-05-13T07:59:05.910Z,99025.03
2023-05-13T08:01:32.832Z,99027.53
2023-05-13T08:03:59.991Z,99034.16
2023-05-13T08:06:27.076Z,99034.16
2023-05-13T08:08:55.472Z,99020.56
2023-05-13T08:11:22.996Z,99037.69
2023-05-13T08:13:49.881Z,99036.84
2023-05-13T08:16:16.795Z,99035.66
2023-05-13T08:18:43.681Z,99039.56
2023-05-13T08:21:10.615Z,99046.53
2023-05-13T08:23:45.507Z,99047.38
2023-05-13T08:26:13.635Z,99047.28
2023-05-13T08:28:41.922Z,99042.16
2023-05-13T08:31:11.792Z,99038.72
2023-05-13T08:33:39.822Z,99041.97
2023-05-13T08:36:07.169Z,99052.00
2023-05-13T08:38:34.715Z,99045.34
2023-05-13T08:41:06.239Z,99048.44
2023-05-13T08:43:34.244Z,99052.91
2023-05-13T08:46:04.829Z,99043.00
2023-05-13T08:48:32.559Z,99051.88
2023-05-13T08:51:01.966Z,99056.91
2023-05-13T08:53:29.415Z,99056.25
2023-05-13T08:55:57.486Z,99048.84
2023-05-13T08:58:25.450Z,99040.13
2023-05-13T09:00:54.151Z,99053.34
2023-05-13T09:03:21.677Z,99056.16
2023-05-13T09:05:48.604Z,99062.88
2023-05-13T09:08:15.404Z,99054.72
2023-05-13T09:10:42.861Z,99063.78
2023-05-13T09:13:12.352Z,99043.66
2023-05-13T09:15:42.467Z,99068.13
2023-05-13T09:18:09.549Z,99067.13
2023-05-13T09:20:36.660Z,99043.44
2023-05-13T09:23:07.253Z,99054.22
2023-05-13T09:25:35.116Z,99058.38
2023-05-13T09:28:04.430Z,99059.31
2023-05-13T09:30:34.751Z,99059.97
2023-05-13T09:33:10.174Z,99056.53
2023-05-13T09:35:40.240Z,99023.94
2023-05-13T09:38:34.649Z,99060.81
2023-05-13T09:41:03.115Z,99064.53
2023-05-13T09:43:33.700Z,99062.56
2023-05-13T09:46:05.347Z,99062.75
2023-05-13T09:48:33.794Z,99065.47
2023-05-13T09:51:01.116Z,99057.72
2023-05-13T09:53:29.102Z,99066.28
2023-05-13T09:55:57.729Z,99065.38
2023-05-13T09:58:29.049Z,99069.44
2023-05-13T10:00:56.642Z,99061.38
2023-05-13T10:03:23.916Z,99061.16
2023-05-13T10:05:52.530Z,99061.72
2023-05-13T10:08:19.715Z,99071.78
2023-05-13T10:10:48.227Z,99063.69
2023-05-13T10:13:16.784Z,99072.91
2023-05-13T10:15:54.344Z,99075.78
2023-05-13T10:18:23.892Z,99054.56
2023-05-13T10:20:53.599Z,99068.63
2023-05-13T10:23:23.975Z,99066.75
2023-05-13T10:25:54.428Z,99041.88
2023-05-13T10:28:22.322Z,99063.59
2023-05-13T10:30:53.776Z,99064.97
2023-05-13T10:33:21.565Z,99071.78
2023-05-13T10:36:38.835Z,99064.88
2023-05-13T10:39:39.528Z,99071.03
2023-05-13T10:42:29.674Z,99074.50
2023-05-13T10:44:58.586Z,99071.78
2023-05-13T10:47:27.196Z,99063.22
2023-05-13T10:49:54.421Z,99075.16
2023-05-13T10:52:21.526Z,99064.88
2023-05-13T10:55:02.529Z,99066.59
2023-05-13T10:57:36.972Z,99079.69
2023-05-13T11:00:16.897Z,99070.19
2023-05-13T11:02:44.239Z,99067.41
2023-05-13T11:05:21.084Z,99053.00
2023-05-13T11:07:58.091Z,99051.06
2023-05-13T11:10:32.641Z,99046.09
2023-05-13T11:13:14.576Z,99064.53
2023-05-13T11:15:53.129Z,99054.66
2023-05-13T11:18:24.658Z,99054.88
2023-05-13T11:20:53.896Z,99044.72
2023-05-13T11:23:21.471Z,99057.28
2023-05-13T11:26:14.211Z,99064.34
2023-05-13T11:29:04.825Z,99064.16
2023-05-13T11:31:50.427Z,99050.56
2023-05-13T11:34:21.724Z,99069.75
2023-05-13T11:36:58.236Z,99072.34
2023-05-13T11:39:28.758Z,99059.59
2023-05-13T11:41:57.425Z,99060.25
2023-05-13T11:44:26.088Z,99042.31
2023-05-13T11:47:02.085Z,99063.94
2023-05-13T11:49:44.571Z,99048.63
2023-05-13T11:52:17.894Z,99038.66
2023-05-13T11:54:57.602Z,99052.41
2023-05-13T11:57:32.485Z,99057.63
2023-05-13T12:00:06.689Z,99049.72
2023-05-13T12:02:40.518Z,99055.78
2023-05-13T12:05:10.180Z,99055.78
2023-05-13T12:07:39.629Z,99057.25
2023-05-13T12:10:08.340Z,99039.41
2023-05-13T12:12:39.105Z,99054.38
2023-05-13T12:15:19.379Z,99057.53
2023-05-13T12:17:48.582Z,99056.69
2023-05-13T12:20:18.370Z,99058.16
2023-05-13T12:22:48.279Z,99066.72
2023-05-13T12:25:44.931Z,99066.91
2023-05-13T12:28:20.951Z,99067.84
2023-05-13T12:30:54.586Z,99069.34
2023-05-13T12:33:26.565Z,99068.19
2023-05-13T12:36:16.093Z,99072.41
2023-05-13T12:39:01.381Z,99056.38
2023-05-13T12:41:39.880Z,99066.34
2023-05-13T12:44:17.041Z,99063.38
2023-05-13T12:46:55.377Z,99065.94
2023-05-13T12:49:22.586Z,99066.97
2023-05-13T12:51:51.607Z,99063.53
2023-05-13T12:54:18.976Z,99052.00
2023-05-13T12:56:46.238Z,99061.66
2023-05-13T12:59:14.668Z,99058.03
2023-05-13T13:01:43.020Z,99064.19
2023-05-13T13:04:10.730Z,99068.28
2023-05-13T13:06:37.766Z,99054.91
2023-05-13T13:09:06.034Z,99070.69
2023-05-13T13:11:33.108Z,99055.50
2023-05-13T13:14:01.240Z,99055.72
2023-05-13T13:16:28.865Z,99072.44
2023-05-13T13:18:59.929Z,99067.44
2023-05-13T13:21:28.652Z,99069.94
2023-05-13T13:23:55.799Z,99059.81
2023-05-13T13:26:23.329Z,99055.72
2023-05-13T13:28:50.370Z,99055.50
2023-05-13T13:31:17.402Z,99059.50
2023-05-13T13:33:44.717Z,99061.84
2023-05-13T13:36:11.673Z,99038.84
2023-05-13T13:38:38.639Z,99053.91
2023-05-13T13:41:06.231Z,99039.50
2023-05-13T13:43:33.358Z,99051.22
2023-05-13T13:46:00.353Z,99044.41
2023-05-13T13:48:27.259Z,99051.94
2023-05-13T13:50:55.076Z,99055.47
2023-05-13T13:53:22.472Z,99056.22
2023-05-13T13:55:49.340Z,99061.22
2023-05-13T13:58:16.282Z,99057.16
2023-05-13T14:00:45.396Z,99033.16
2023-05-13T14:03:12.494Z,99045.88
2023-05-13T14:05:39.544Z,99051.00
2023-05-13T14:08:06.775Z,99056.22
2023-05-13T14:10:33.613Z,99045.44
2023-05-13T14:13:00.767Z,99049.97
2023-05-13T14:15:30.257Z,99036.41
2023-05-13T14:17:57.922Z,99024.06
2023-05-13T14:20:25.156Z,99043.38
2023-05-13T14:22:52.298Z,99052.22
2023-05-13T14:25:19.501Z,99034.28
2023-05-13T14:27:46.542Z,99042.84
2023-05-13T14:30:13.825Z,99043.03
2023-05-13T14:32:45.369Z,99054.47
2023-05-13T14:35:13.587Z,99052.09
2023-05-13T14:37:41.392Z,99050.63
2023-05-13T14:40:09.735Z,99033.16
2023-05-13T14:42:36.731Z,99044.22
2023-05-13T14:45:04.045Z,99042.44
2023-05-13T14:47:31.036Z,99034.81
2023-05-13T14:49:58.131Z,99046.22
2023-05-13T14:52:25.535Z,99035.25
2023-05-13T14:54:53.824Z,99030.56
2023-05-13T14:57:21.340Z,99022.63
2023-05-13T14:59:48.260Z,99033.09
2023-05-13T15:02:17.298Z,99031.53
2023-05-13T15:04:44.877Z,99020.94
2023-05-13T15:07:12.072Z,99015.25
2023-05-13T15:09:41.178Z,99028.06
2023-05-13T15:12:09.961Z,99018.91
2023-05-13T15:14:36.840Z,99014.28
2023-05-13T15:17:06.172Z,99007.22
2023-05-13T15:19:35.968Z,99001.16
2023-05-13T15:22:02.935Z,99019.19
2023-05-13T15:24:31.331Z,99018.38
2023-05-13T15:26:58.479Z,99013.78
2023-05-13T15:29:25.394Z,99010.44
2023-05-13T15:31:52.647Z,99010.63
2023-05-13T15:34:19.456Z,99013.25
2023-05-13T15:36:46.450Z,98995.44
2023-05-13T15:39:13.509Z,99015.00
2023-05-13T15:41:40.462Z,98994.44
2023-05-13T15:44:07.259Z,99003.00
2023-05-13T15:46:34.715Z,99000.31
2023-05-13T15:49:02.293Z,99000.22
2023-05-13T15:51:29.642Z,98991.53
2023-05-13T15:53:56.556Z,98987.97
2023-05-13T15:56:23.900Z,98991.44
2023-05-13T15:58:52.562Z,98984.72
2023-05-13T16:01:19.574Z,98992.28
2023-05-13T16:03:46.480Z,98993.09
2023-05-13T16:06:13.477Z,98982.22
2023-05-13T16:08:40.415Z,98973.63
2023-05-13T16:11:07.291Z,98995.81
2023-05-13T16:13:35.298Z,98981.22
2023-05-13T16:16:02.369Z,98993.19
2023-05-13T16:18:29.511Z,98988.19
2023-05-13T16:20:57.775Z,98989.78
2023-05-13T16:23:24.808Z,98990.47
2023-05-13T16:25:51.753Z,98994.88
2023-05-13T16:28:18.621Z,98992.28
2023-05-13T16:30:48.057Z,98992.47
2023-05-13T16:33:16.003Z,99001.22
2023-05-13T16:35:43.756Z,98967.44
2023-05-13T16:38:11.348Z,98996.19
2023-05-13T16:40:41.459Z,98991.81
2023-05-13T16:43:09.099Z,98991.19
2023-05-13T16:45:36.056Z,98991.34
2023-05-13T16:48:02.904Z,98979.47
2023-05-13T16:50:30.546Z,98987.63
2023-05-13T16:52:57.646Z,98988.47
2023-05-13T16:55:26.015Z,98988.56
2023-05-13T16:57:53.933Z,98980.91
2023-05-13T17:00:21.052Z,98982.63
2023-05-13T17:02:49.858Z,98981.47
2023-05-13T17:05:18.611Z,98970.81
2023-05-13T17:07:45.696Z,98979.91
2023-05-13T17:10:13.854Z,98980.75
2023-05-13T17:12:40.843Z,98960.47
2023-05-13T17:15:08.502Z,98972.38
2023-05-13T17:17:35.556Z,98974.88
2023-05-13T17:20:02.650Z,98967.34
2023-05-13T17:22:29.777Z,98980.09
2023-05-13T17:24:56.600Z,98977.50
2023-05-13T17:27:23.565Z,98958.19
2023-05-13T17:29:50.438Z,98975.91
2023-05-13T17:32:17.904Z,98974.25
2023-05-13T17:34:44.865Z,98962.44
2023-05-13T17:37:11.929Z,98972.38
2023-05-13T17:39:39.980Z,98979.25
2023-05-13T17:42:06.920Z,98978.03
2023-05-13T17:44:33.964Z,98972.91
2023-05-13T17:47:01.912Z,98966.13
2023-05-13T17:49:29.565Z,98979.06
2023-05-13T17:51:56.714Z,98963.19
2023-05-13T17:54:23.610Z,98960.59
2023-05-13T17:56:50.743Z,98972.38
2023-05-13T17:59:20.469Z,98977.59
2023-05-13T18:01:47.474Z,98957.22
2023-05-13T18:04:14.403Z,98978.03
2023-05-13T18:06:41.364Z,98977.00
2023-05-13T18:09:08.914Z,98969.47
2023-05-13T18:11:35.873Z,98967.59
2023-05-13T18:14:03.202Z,98969.97
2023-05-13T18:16:30.272Z,98976.75
2023-05-13T18:18:57.330Z,98974.44
2023-05-13T18:21:27.391Z,98983.00
2023-05-13T18:23:55.945Z,98978.00
2023-05-13T18:26:23.135Z,98978.72
2023-05-13T18:28:50.225Z,98979.66
2023-05-13T18:31:17.353Z,98981.53
2023-05-13T18:33:44.359Z,98969.19
2023-05-13T18:36:11.177Z,98990.28
2023-05-13T18:38:41.684Z,98992.78
2023-05-13T18:41:20.332Z,98995.50
2023-05-13T18:43:52.262Z,98992.16
2023-05-13T18:46:21.424Z,99002.56
2023-05-13T18:48:53.382Z,98988.38
2023-05-13T18:51:22.362Z,98992.75
2023-05-13T18:53:49.966Z,99005.19
2023-05-13T18:56:17.219Z,99003.53
2023-05-13T18:58:46.727Z,99009.69
2023-05-13T19:01:15.798Z,99010.50
2023-05-13T19:03:43.502Z,99009.88
2023-05-13T19:06:12.058Z,99012.28
2023-05-13T19:08:40.078Z,99011.56
2023-05-13T19:11:07.270Z,99014.91
2023-05-13T19:13:46.159Z,99011.34
2023-05-13T19:16:13.958Z,99008.22
2023-05-13T19:18:40.875Z,99013.84
2023-05-13T19:21:10.118Z,99012.56
2023-05-13T19:23:49.762Z,99015.53
2023-05-13T19:26:18.533Z,99018.06
2023-05-13T19:28:47.983Z,99017.00
2023-05-13T19:31:17.830Z,99018.75
2023-05-13T19:33:46.226Z,99017.94
2023-05-13T19:36:13.417Z,99015.53
2023-05-13T19:38:40.228Z,99016.56
2023-05-13T19:41:07.079Z,99023.00
2023-05-13T19:43:33.878Z,99024.44
2023-05-13T19:46:00.855Z,99028.94
2023-05-13T19:48:29.926Z,99029.34
2023-05-13T19:50:58.193Z,99024.88
2023-05-13T19:53:25.038Z,99018.19
2023-05-13T19:55:51.956Z,99032.59
2023-05-13T19:58:18.759Z,99014.66
2023-05-13T20:00:46.302Z,99031.69
2023-05-13T20:03:13.469Z,99029.81
2023-05-13T20:05:43.568Z,99025.31
2023-05-13T20:08:10.644Z,99036.78
2023-05-13T20:10:37.456Z,99040.31
2023-05-13T20:13:04.712Z,99040.50
2023-05-13T20:15:32.091Z,99037.34
2023-05-13T20:17:59.100Z,99040.34
2023-05-13T20:20:26.015Z,99042.66
2023-05-13T20:22:52.926Z,99043.59
2023-05-13T20:25:20.118Z,99045.66
2023-05-13T20:27:46.945Z,99041.19
2023-05-13T20:30:15.194Z,99044.25
2023-05-13T20:32:42.172Z,99039.31
2023-05-13T20:35:10.248Z,99032.44
2023-05-13T20:37:37.073Z,99040.91
2023-05-13T20:40:04.567Z,99044.06
2023-05-13T20:42:31.912Z,99037.91
2023-05-13T20:44:58.830Z,99044.63
2023-05-13T20:47:25.644Z,99044.72
2023-05-13T20:49:52.425Z,99043.13
2023-05-13T20:52:19.328Z,99038.00
2023-05-13T20:54:46.206Z,99045.56
2023-05-13T20:57:13.085Z,99040.72
2023-05-13T20:59:40.148Z,99038.94
2023-05-13T21:02:07.678Z,99034.59
2023-05-13T21:04:34.500Z,99031.59
2023-05-13T21:07:01.390Z,99031.03
2023-05-13T21:09:28.167Z,99024.34
2023-05-13T21:11:55.120Z,99020.91
2023-05-13T21:14:22.064Z,99029.47
2023-05-13T21:16:48.968Z,99024.25
2023-05-13T21:19:24.167Z,99020.06
2023-05-13T21:21:51.144Z,99022.00
2023-05-13T21:24:19.192Z,99011.69
2023-05-13T21:26:46.973Z,99014.50
2023-05-13T21:29:13.827Z,99016.06
2023-05-13T21:31:40.711Z,99007.69
2023-05-13T21:34:07.536Z,99016.91
2023-05-13T21:36:34.411Z,98993.63
2023-05-13T21:39:01.621Z,99016.25
2023-05-13T21:41:28.402Z,99018.59
2023-05-13T21:43:55.183Z,99018.75
2023-05-13T21:46:21.952Z,99015.25
2023-05-13T21:48:48.935Z,99018.75
2023-05-13T21:51:15.720Z,99007.53
2023-05-13T21:53:43.415Z,99004.06
2023-05-13T21:56:10.261Z,99003.78
2023-05-13T21:58:37.059Z,99008.25
2023-05-13T22:01:03.884Z,99006.88
2023-05-13T22:03:30.765Z,99000.13
2023-05-13T22:05:57.716Z,98997.53
2023-05-13T22:08:24.606Z,98995.69
2023-05-13T22:10:51.395Z,99005.16
2023-05-13T22:13:21.395Z,98999.38
2023-05-13T22:15:48.979Z,98994.09
2023-05-13T22:18:15.937Z,98989.72
2023-05-13T22:20:42.863Z,98994.56
2023-05-13T22:23:09.643Z,98986.75
2023-05-13T22:25:36.485Z,98970.38
2023-05-13T22:28:03.288Z,98980.06
2023-05-13T22:30:30.084Z,98981.00
2023-05-13T22:32:57.079Z,98999.59
2023-05-13T22:35:24.056Z,98993.28
2023-05-13T22:37:52.528Z,98996.78
2023-05-13T22:40:19.623Z,98995.97
2023-05-13T22:42:46.677Z,98997.72
2023-05-13T22:45:13.551Z,98998.28
2023-05-13T22:47:40.428Z,98993.91
2023-05-13T22:50:07.982Z,98994.94
2023-05-13T22:52:34.990Z,98993.81
2023-05-13T22:55:01.819Z,98973.19
2023-05-13T22:57:28.796Z,98977.63
2023-05-13T22:59:55.719Z,98990.94
2023-05-13T23:02:23.568Z,98990.47
2023-05-13T23:04:50.508Z,98976.88
2023-05-13T23:07:17.377Z,98983.59
2023-05-13T23:09:44.358Z,98963.13
2023-05-13T23:12:11.372Z,98970.47
2023-05-13T23:14:39.800Z,98975.78
2023-05-13T23:17:06.736Z,98971.50
2023-05-13T23:19:34.077Z,98967.03
2023-05-13T23:22:00.998Z,98968.88
2023-05-13T23:24:27.877Z,98964.81
2023-05-13T23:26:54.887Z,98963.78
2023-05-13T23:29:21.714Z,98962.94
2023-05-13T23:31:48.584Z,98965.47
2023-05-13T23:34:15.420Z,98957.66
2023-05-13T23:36:42.244Z,98944.34
2023-05-13T23:39:09.704Z,98942.69
2023-05-13T23:41:36.531Z,98953.47
2023-05-13T23:44:03.813Z,98959.50
2023-05-13T23:46:31.885Z,98946.09
2023-05-13T23:48:59.976Z,98945.94
2023-05-13T23:51:26.765Z,98940.84
2023-05-13T23:53:55.365Z,98935.78
2023-05-13T23:56:22.450Z,98923.72
2023-05-13T23:58:49.328Z,98932.09
